createdAt,value
2022-10-19T00:01:23.598Z,101595.72
2022-10-19T00:03:56.179Z,101592.22
2022-10-19T00:06:28.512Z,101593.16
2022-10-19T00:09:01.884Z,101590.50
2022-10-19T00:11:31.116Z,101588.63
2022-10-19T00:14:00.504Z,101582.31
2022-10-19T00:16:32.117Z,101581.44
2022-10-19T00:19:02.443Z,101572.47
2022-10-19T00:21:31.024Z,101566.25
2022-10-19T00:23:59.454Z,101567.22
2022-10-19T00:26:28.434Z,101571.72
2022-10-19T00:28:57.471Z,101565.63
2022-10-19T00:31:26.806Z,101572.47
2022-10-19T00:33:57.640Z,101569.81
2022-10-19T00:36:31.913Z,101568.16
2022-10-19T00:39:00.444Z,101562.88
2022-10-19T00:41:31.437Z,101567.34
2022-10-19T00:44:02.583Z,101562.00
2022-10-19T00:46:34.963Z,101562.00
2022-10-19T00:49:13.575Z,101556.59
2022-10-19T00:51:46.076Z,101559.56
2022-10-19T00:54:14.875Z,101566.78
2022-10-19T00:56:45.355Z,101554.47
2022-10-19T00:59:15.955Z,101560.69
2022-10-19T01:01:46.644Z,101552.69
2022-10-19T01:04:15.116Z,101548.88
2022-10-19T01:06:55.955Z,101549.88
2022-10-19T01:09:24.607Z,101553.59
2022-10-19T01:12:02.414Z,101552.69
2022-10-19T01:14:59.675Z,101545.66
2022-10-19T01:17:55.625Z,101554.34
2022-10-19T01:20:35.634Z,101553.47
2022-10-19T01:23:23.677Z,101537.69
2022-10-19T01:26:10.495Z,101535.03
2022-10-19T01:29:02.701Z,101537.69
2022-10-19T01:31:49.617Z,101536.63
2022-10-19T01:34:28.046Z,101526.25
2022-10-19T01:37:17.905Z,101528.75
2022-10-19T01:39:49.936Z,101525.31
2022-10-19T01:42:18.226Z,101524.88
2022-10-19T01:44:51.386Z,101525.00
2022-10-19T01:47:39.708Z,101518.84
2022-10-19T01:50:48.526Z,101524.13
2022-10-19T01:53:18.696Z,101514.56
2022-10-19T01:55:50.534Z,101514.69
2022-10-19T01:58:23.784Z,101516.44
2022-10-19T02:00:53.684Z,101513.50
2022-10-19T02:03:23.856Z,101518.19
2022-10-19T02:05:53.584Z,101514.56
2022-10-19T02:08:35.677Z,101510.97
2022-10-19T02:11:05.265Z,101511.91
2022-10-19T02:13:34.076Z,101506.78
2022-10-19T02:16:04.615Z,101503.63
2022-10-19T02:18:36.920Z,101492.31
2022-10-19T02:21:06.335Z,101506.03
2022-10-19T02:23:34.824Z,101502.13
2022-10-19T02:26:03.884Z,101506.78
2022-10-19T02:28:32.677Z,101509.53
2022-10-19T02:31:02.207Z,101507.63
2022-10-19T02:33:31.246Z,101493.31
2022-10-19T02:36:00.255Z,101493.63
2022-10-19T02:38:28.924Z,101495.34
2022-10-19T02:41:07.625Z,101493.63
2022-10-19T02:43:38.613Z,101491.88
2022-10-19T02:46:28.967Z,101482.91
2022-10-19T02:48:58.564Z,101485.66
2022-10-19T02:51:32.319Z,101484.66
2022-10-19T02:54:04.189Z,101482.78
2022-10-19T02:56:35.254Z,101483.84
2022-10-19T02:59:04.095Z,101484.78
2022-10-19T03:01:32.917Z,101482.91
2022-10-19T03:04:01.167Z,101485.53
2022-10-19T03:06:29.734Z,101488.13
2022-10-19T03:08:57.904Z,101484.28
2022-10-19T03:11:26.493Z,101487.84
2022-10-19T03:13:54.824Z,101481.06
2022-10-19T03:16:23.435Z,101479.63
2022-10-19T03:18:51.723Z,101477.69
2022-10-19T03:21:20.247Z,101475.84
2022-10-19T03:23:48.574Z,101483.84
2022-10-19T03:26:18.218Z,101473.97
2022-10-19T03:28:46.679Z,101471.63
2022-10-19T03:31:15.165Z,101481.56
2022-10-19T03:33:43.614Z,101476.09
2022-10-19T03:36:21.260Z,101475.16
2022-10-19T03:38:58.015Z,101476.63
2022-10-19T03:41:29.325Z,101479.31
2022-10-19T03:43:57.934Z,101479.84
2022-10-19T03:46:27.187Z,101481.56
2022-10-19T03:48:55.616Z,101486.13
2022-10-19T03:51:28.600Z,101479.13
2022-10-19T03:54:06.508Z,101474.66
2022-10-19T03:56:36.894Z,101472.91
2022-10-19T03:59:06.614Z,101477.25
2022-10-19T04:01:38.649Z,101481.88
2022-10-19T04:04:11.587Z,101480.69
2022-10-19T04:06:43.296Z,101476.38
2022-10-19T04:09:14.264Z,101474.78
2022-10-19T04:11:43.474Z,101484.53
2022-10-19T04:14:26.689Z,101479.31
2022-10-19T04:17:02.588Z,101480.00
2022-10-19T04:19:31.679Z,101473.91
2022-10-19T04:22:00.159Z,101477.72
2022-10-19T04:24:29.228Z,101477.59
2022-10-19T04:26:57.657Z,101474.78
2022-10-19T04:29:29.663Z,101474.09
2022-10-19T04:31:59.864Z,101474.03
2022-10-19T04:34:28.053Z,101475.97
2022-10-19T04:36:59.646Z,101474.22
2022-10-19T04:39:29.294Z,101468.75
2022-10-19T04:41:57.859Z,101469.16
2022-10-19T04:44:26.035Z,101476.38
2022-10-19T04:46:54.378Z,101469.56
2022-10-19T04:49:22.634Z,101473.03
2022-10-19T04:51:51.126Z,101480.25
2022-10-19T04:54:19.403Z,101474.09
2022-10-19T04:56:48.065Z,101476.03
2022-10-19T04:59:16.337Z,101467.09
2022-10-19T05:01:47.356Z,101469.94
2022-10-19T05:04:15.868Z,101475.16
2022-10-19T05:06:44.369Z,101478.94
2022-10-19T05:09:12.673Z,101474.22
2022-10-19T05:11:41.191Z,101475.16
2022-10-19T05:14:09.410Z,101476.16
2022-10-19T05:16:37.962Z,101486.84
2022-10-19T05:19:06.765Z,101487.06
2022-10-19T05:21:35.875Z,101486.66
2022-10-19T05:24:04.771Z,101484.28
2022-10-19T05:26:33.693Z,101480.63
2022-10-19T05:29:03.106Z,101476.31
2022-10-19T05:31:33.855Z,101473.59
2022-10-19T05:34:04.429Z,101474.16
2022-10-19T05:36:38.125Z,101469.81
2022-10-19T05:39:09.654Z,101470.69
2022-10-19T05:41:38.177Z,101476.03
2022-10-19T05:44:06.939Z,101479.78
2022-10-19T05:46:35.454Z,101480.72
2022-10-19T05:49:04.174Z,101476.91
2022-10-19T05:51:32.896Z,101483.97
2022-10-19T05:54:01.165Z,101481.59
2022-10-19T05:56:31.098Z,101480.50
2022-10-19T05:59:01.536Z,101478.25
2022-10-19T06:01:31.314Z,101482.72
2022-10-19T06:04:02.095Z,101477.44
2022-10-19T06:06:31.891Z,101479.78
2022-10-19T06:09:00.772Z,101487.34
2022-10-19T06:11:34.257Z,101489.47
2022-10-19T06:14:05.894Z,101496.03
2022-10-19T06:16:35.337Z,101494.81
2022-10-19T06:19:05.705Z,101499.44
2022-10-19T06:21:35.414Z,101501.47
2022-10-19T06:24:06.945Z,101506.09
2022-10-19T06:26:36.073Z,101506.63
2022-10-19T06:29:05.543Z,101510.56
2022-10-19T06:31:36.891Z,101509.75
2022-10-19T06:34:05.594Z,101514.22
2022-10-19T06:36:34.761Z,101520.88
2022-10-19T06:39:03.175Z,101513.22
2022-10-19T06:41:32.867Z,101515.97
2022-10-19T06:44:19.368Z,101528.13
2022-10-19T06:46:47.946Z,101525.53
2022-10-19T06:49:16.186Z,101531.56
2022-10-19T06:51:44.932Z,101531.28
2022-10-19T06:54:13.174Z,101534.16
2022-10-19T06:56:41.876Z,101532.13
2022-10-19T06:59:10.632Z,101527.09
2022-10-19T07:01:39.237Z,101525.34
2022-10-19T07:04:07.467Z,101528.88
2022-10-19T07:06:35.933Z,101517.16
2022-10-19T07:09:04.316Z,101526.59
2022-10-19T07:11:32.918Z,101530.97
2022-10-19T07:14:01.425Z,101531.94
2022-10-19T07:16:29.960Z,101532.06
2022-10-19T07:18:58.254Z,101531.34
2022-10-19T07:21:26.855Z,101529.47
2022-10-19T07:23:55.215Z,101530.22
2022-10-19T07:26:27.866Z,101526.00
2022-10-19T07:28:57.872Z,101531.41
2022-10-19T07:31:28.849Z,101525.88
2022-10-19T07:33:59.899Z,101532.19
2022-10-19T07:36:30.733Z,101533.06
2022-10-19T07:38:59.177Z,101533.94
2022-10-19T07:41:27.892Z,101531.09
2022-10-19T07:43:58.254Z,101537.28
2022-10-19T07:46:29.632Z,101531.81
2022-10-19T07:48:57.941Z,101532.81
2022-10-19T07:54:00.542Z,101538.91
2022-10-19T07:56:29.514Z,101533.28
2022-10-19T07:58:59.773Z,101532.03
2022-10-19T08:01:41.117Z,101532.16
2022-10-19T08:06:58.307Z,101534.50
2022-10-19T08:12:15.748Z,101528.22
2022-10-19T08:14:44.257Z,101533.28
2022-10-19T08:17:16.908Z,101532.41
2022-10-19T08:19:48.156Z,101532.47
2022-10-19T08:22:16.733Z,101527.00
2022-10-19T08:24:45.196Z,101533.97
2022-10-19T08:27:15.032Z,101533.91
2022-10-19T08:29:43.319Z,101536.38
2022-10-19T08:32:12.183Z,101535.50
2022-10-19T08:34:40.555Z,101528.94
2022-10-19T08:37:19.852Z,101536.88
2022-10-19T08:39:54.486Z,101527.69
2022-10-19T08:42:41.583Z,101525.66
2022-10-19T08:45:39.273Z,101523.38
2022-10-19T08:48:46.734Z,101525.38
2022-10-19T08:51:15.286Z,101519.44
2022-10-19T08:53:43.795Z,101524.59
2022-10-19T08:56:49.382Z,101520.25
2022-10-19T08:59:51.665Z,101518.75
2022-10-19T09:02:56.994Z,101523.00
2022-10-19T09:06:05.112Z,101521.50
2022-10-19T09:08:36.869Z,101521.41
2022-10-19T09:11:10.123Z,101523.53
2022-10-19T09:14:04.123Z,101518.44
2022-10-19T09:16:35.523Z,101518.31
2022-10-19T09:19:13.585Z,101516.00
2022-10-19T09:21:50.845Z,101513.75
2022-10-19T09:24:30.463Z,101513.69
2022-10-19T09:27:02.854Z,101515.13
2022-10-19T09:29:42.055Z,101517.00
2022-10-19T09:32:16.033Z,101514.97
2022-10-19T09:35:27.788Z,101517.06
2022-10-19T09:37:57.073Z,101509.66
2022-10-19T09:40:30.872Z,101521.16
2022-10-19T09:43:03.390Z,101514.38
2022-10-19T09:45:52.522Z,101520.47
2022-10-19T09:48:25.833Z,101512.66
2022-10-19T09:51:00.397Z,101513.03
2022-10-19T09:53:29.956Z,101520.06
2022-10-19T09:56:04.476Z,101517.31
2022-10-19T09:58:34.036Z,101516.28
2022-10-19T10:01:03.330Z,101523.34
2022-10-19T10:03:41.123Z,101519.59
2022-10-19T10:06:15.376Z,101512.91
2022-10-19T10:08:58.417Z,101513.47
2022-10-19T10:11:35.273Z,101516.38
2022-10-19T10:14:18.327Z,101514.25
2022-10-19T10:16:47.094Z,101514.31
2022-10-19T10:19:17.153Z,101516.94
2022-10-19T10:21:56.726Z,101522.34
2022-10-19T10:24:34.794Z,101520.06
2022-10-19T10:27:05.640Z,101519.91
2022-10-19T10:29:37.175Z,101514.41
2022-10-19T10:32:06.450Z,101515.19
2022-10-19T10:35:01.063Z,101512.84
2022-10-19T10:37:34.727Z,101507.72
2022-10-19T10:40:06.007Z,101504.25
2022-10-19T10:42:37.970Z,101504.19
2022-10-19T10:45:26.779Z,101495.91
2022-10-19T10:47:55.648Z,101498.31
2022-10-19T10:50:34.092Z,101480.50
2022-10-19T10:53:05.663Z,101476.44
2022-10-19T10:55:35.153Z,101469.91
2022-10-19T10:58:17.179Z,101472.47
2022-10-19T11:00:47.429Z,101471.09
2022-10-19T11:03:29.682Z,101461.88
2022-10-19T11:06:00.616Z,101461.75
2022-10-19T11:08:37.931Z,101455.16
2022-10-19T11:11:14.317Z,101453.72
2022-10-19T11:14:01.004Z,101451.16
2022-10-19T11:16:36.123Z,101446.31
2022-10-19T11:19:40.254Z,101451.53
2022-10-19T11:22:31.446Z,101447.69
2022-10-19T11:25:39.593Z,101446.16
2022-10-19T11:28:33.092Z,101439.78
2022-10-19T11:31:17.134Z,101434.19
2022-10-19T11:33:56.208Z,101429.88
2022-10-19T11:36:42.024Z,101428.56
2022-10-19T11:39:33.783Z,101417.47
2022-10-19T11:42:19.565Z,101413.84
2022-10-19T11:45:06.574Z,101409.97
2022-10-19T11:48:09.747Z,101406.09
2022-10-19T11:50:54.143Z,101394.25
2022-10-19T11:53:45.725Z,101399.47
2022-10-19T11:56:20.904Z,101396.31
2022-10-19T11:58:58.074Z,101393.56
2022-10-19T12:01:52.389Z,101379.22
2022-10-19T12:04:23.826Z,101390.94
2022-10-19T12:07:04.959Z,101388.38
2022-10-19T12:09:57.907Z,101374.38
2022-10-19T12:12:37.026Z,101378.78
2022-10-19T12:15:11.901Z,101383.22
2022-10-19T12:17:42.374Z,101376.59
2022-10-19T12:20:32.794Z,101367.13
2022-10-19T12:23:12.696Z,101373.50
2022-10-19T12:25:44.514Z,101365.72
2022-10-19T12:28:21.746Z,101368.16
2022-10-19T12:30:51.523Z,101363.50
2022-10-19T12:33:38.695Z,101351.34
2022-10-19T12:36:10.931Z,101354.28
2022-10-19T12:39:06.295Z,101348.22
2022-10-19T12:41:52.792Z,101344.97
2022-10-19T12:44:57.820Z,101338.50
2022-10-19T12:47:27.496Z,101331.81
2022-10-19T12:49:56.676Z,101330.78
2022-10-19T12:52:39.153Z,101330.94
2022-10-19T12:55:26.448Z,101335.09
2022-10-19T12:58:07.084Z,101329.22
2022-10-19T13:00:38.179Z,101326.03
2022-10-19T13:03:16.283Z,101318.94
2022-10-19T13:05:57.539Z,101310.19
2022-10-19T13:08:32.772Z,101306.53
2022-10-19T13:11:14.831Z,101299.97
2022-10-19T13:14:15.006Z,101301.19
2022-10-19T13:17:03.433Z,101306.09
2022-10-19T13:19:32.354Z,101301.72
2022-10-19T13:22:01.727Z,101303.41
2022-10-19T13:24:34.299Z,101300.47
2022-10-19T13:27:02.955Z,101299.97
2022-10-19T13:29:40.178Z,101289.72
2022-10-19T13:32:32.198Z,101296.41
2022-10-19T13:35:27.455Z,101290.59
2022-10-19T13:38:18.166Z,101286.25
2022-10-19T13:40:49.556Z,101279.16
2022-10-19T13:43:28.654Z,101281.69
2022-10-19T13:46:06.859Z,101271.91
2022-10-19T13:49:09.267Z,101273.28
2022-10-19T13:52:03.792Z,101273.97
2022-10-19T13:54:53.664Z,101276.75
2022-10-19T13:58:04.624Z,101268.25
2022-10-19T14:01:03.715Z,101266.34
2022-10-19T14:04:00.175Z,101272.31
2022-10-19T14:06:43.495Z,101269.13
2022-10-19T14:09:38.678Z,101267.59
2022-10-19T14:12:30.825Z,101268.47
2022-10-19T14:15:00.340Z,101262.03
2022-10-19T14:17:34.641Z,101256.47
2022-10-19T14:20:04.706Z,101255.59
2022-10-19T14:22:34.965Z,101253.44
2022-10-19T14:25:07.738Z,101258.03
2022-10-19T14:27:36.527Z,101260.88
2022-10-19T14:30:05.962Z,101260.88
2022-10-19T14:32:35.736Z,101262.53
2022-10-19T14:35:07.255Z,101262.63
2022-10-19T14:37:38.003Z,101260.72
2022-10-19T14:40:17.293Z,101248.34
2022-10-19T14:42:47.084Z,101248.66
2022-10-19T14:45:35.524Z,101250.19
2022-10-19T14:48:06.842Z,101252.16
2022-10-19T14:50:50.592Z,101247.56
2022-10-19T14:53:34.465Z,101252.84
2022-10-19T14:56:08.294Z,101252.41
2022-10-19T14:59:13.177Z,101246.44
2022-10-19T15:01:41.729Z,101249.88
2022-10-19T15:04:10.505Z,101247.13
2022-10-19T15:06:42.963Z,101240.53
2022-10-19T15:09:36.816Z,101239.75
2022-10-19T15:12:15.404Z,101240.00
2022-10-19T15:14:45.036Z,101248.44
2022-10-19T15:17:31.515Z,101243.22
2022-10-19T15:20:01.741Z,101247.00
2022-10-19T15:22:34.096Z,101239.16
2022-10-19T15:25:08.966Z,101247.06
2022-10-19T15:27:39.936Z,101240.38
2022-10-19T15:30:30.116Z,101253.41
2022-10-19T15:33:11.514Z,101251.63
2022-10-19T15:35:43.793Z,101248.19
2022-10-19T15:38:27.954Z,101246.63
2022-10-19T15:41:05.435Z,101244.72
2022-10-19T15:43:37.836Z,101249.66
2022-10-19T15:46:21.575Z,101248.34
2022-10-19T15:48:57.328Z,101245.97
2022-10-19T15:51:25.985Z,101248.16
2022-10-19T15:54:06.024Z,101249.44
2022-10-19T15:56:37.503Z,101243.63
2022-10-19T15:59:18.156Z,101239.75
2022-10-19T16:01:55.116Z,101236.66
2022-10-19T16:04:24.596Z,101233.00
2022-10-19T16:06:53.154Z,101233.00
2022-10-19T16:09:22.375Z,101243.41
2022-10-19T16:11:56.584Z,101235.19
2022-10-19T16:14:26.813Z,101229.91
2022-10-19T16:16:59.357Z,101236.06
2022-10-19T16:19:27.547Z,101234.50
2022-10-19T16:21:55.905Z,101231.13
2022-10-19T16:24:24.130Z,101232.50
2022-10-19T16:26:52.477Z,101235.81
2022-10-19T16:29:22.565Z,101237.72
2022-10-19T16:31:51.796Z,101229.84
2022-10-19T16:34:19.885Z,101236.75
2022-10-19T16:36:48.331Z,101233.56
2022-10-19T16:39:16.537Z,101238.50
2022-10-19T16:41:45.060Z,101232.81
2022-10-19T16:44:13.637Z,101243.53
2022-10-19T16:46:42.065Z,101237.41
2022-10-19T16:49:10.249Z,101240.56
2022-10-19T16:51:40.402Z,101235.81
2022-10-19T16:54:11.209Z,101235.66
2022-10-19T16:56:45.041Z,101243.91
2022-10-19T16:59:15.663Z,101242.75
2022-10-19T17:01:45.828Z,101248.75
2022-10-19T17:04:15.877Z,101250.34
2022-10-19T17:06:44.805Z,101249.97
2022-10-19T17:09:37.084Z,101256.72
2022-10-19T17:12:03.977Z,101252.53
2022-10-19T17:14:32.587Z,101249.44
2022-10-19T17:17:01.072Z,101256.00
2022-10-19T17:19:29.338Z,101263.94
2022-10-19T17:21:59.479Z,101266.22
2022-10-19T17:24:27.788Z,101272.59
2022-10-19T17:26:56.348Z,101269.75
2022-10-19T17:29:24.629Z,101277.19
2022-10-19T17:31:53.178Z,101288.03
2022-10-19T17:34:21.615Z,101283.38
2022-10-19T17:36:50.294Z,101281.06
2022-10-19T17:39:25.605Z,101280.19
2022-10-19T17:42:02.305Z,101281.75
2022-10-19T17:44:31.844Z,101282.78
2022-10-19T17:47:01.546Z,101285.06
2022-10-19T17:49:30.253Z,101290.06
2022-10-19T17:51:59.365Z,101287.13
2022-10-19T17:54:27.667Z,101291.94
2022-10-19T17:56:56.273Z,101296.97
2022-10-19T17:59:34.630Z,101295.75
2022-10-19T18:02:06.497Z,101300.47
2022-10-19T18:07:05.105Z,101292.66
2022-10-19T18:09:33.526Z,101298.41
2022-10-19T18:12:06.385Z,101292.31
2022-10-19T18:14:36.015Z,101295.25
2022-10-19T18:17:04.633Z,101294.97
2022-10-19T18:19:33.014Z,101295.66
2022-10-19T18:22:01.694Z,101295.91
2022-10-19T19:29:44.632Z,101330.81
2022-10-19T19:32:13.848Z,101333.78
2022-10-19T19:34:44.487Z,101338.91
2022-10-19T19:37:14.187Z,101342.53
2022-10-19T19:39:45.885Z,101338.84
2022-10-19T19:42:15.295Z,101344.63
2022-10-19T19:44:45.493Z,101350.25
2022-10-19T19:47:14.913Z,101353.66
2022-10-19T19:49:43.480Z,101354.06
2022-10-19T19:52:12.532Z,101356.66
2022-10-19T19:54:42.195Z,101349.28
2022-10-19T19:57:11.763Z,101349.13
2022-10-19T19:59:44.658Z,101366.34
2022-10-19T20:02:13.760Z,101361.56
2022-10-19T20:04:42.394Z,101365.75
2022-10-19T20:07:11.355Z,101355.13
2022-10-19T20:09:41.403Z,101356.22
2022-10-19T20:12:09.991Z,101357.00
2022-10-19T20:14:38.374Z,101357.78
2022-10-19T20:17:08.007Z,101356.22
2022-10-19T20:19:40.065Z,101355.34
2022-10-19T20:22:08.999Z,101365.03
2022-10-19T20:24:37.836Z,101365.19
2022-10-19T20:27:08.433Z,101371.47
2022-10-19T20:29:36.903Z,101366.06
2022-10-19T20:32:05.666Z,101370.69
2022-10-19T20:34:36.041Z,101368.94
2022-10-19T20:37:05.161Z,101372.44
2022-10-19T20:39:34.305Z,101370.69
2022-10-19T20:42:02.731Z,101383.13
2022-10-19T20:44:31.013Z,101383.00
2022-10-19T20:46:59.465Z,101384.88
2022-10-19T20:49:27.742Z,101384.72
2022-10-19T20:51:56.262Z,101378.81
2022-10-19T20:54:24.713Z,101379.53
2022-10-19T20:56:53.105Z,101378.88
2022-10-19T20:59:25.447Z,101375.41
2022-10-19T21:01:55.829Z,101377.94
2022-10-19T21:04:25.744Z,101378.88
2022-10-19T22:19:35.528Z,101380.41
2022-10-19T22:31:30.716Z,101383.72
2022-10-19T22:34:07.839Z,101385.22
2022-10-19T22:36:36.628Z,101389.38
2022-10-19T22:39:06.197Z,101386.81
2022-10-19T22:41:34.468Z,101391.31
2022-10-19T22:44:03.117Z,101391.59
2022-10-19T22:46:31.433Z,101392.47
2022-10-19T22:49:00.036Z,101393.31
2022-10-19T22:51:28.487Z,101396.81
2022-10-19T22:53:57.029Z,101389.72
2022-10-19T22:56:25.247Z,101388.13
2022-10-19T22:58:53.719Z,101395.22
2022-10-19T23:01:22.047Z,101404.09
2022-10-19T23:03:50.532Z,101402.50
2022-10-19T23:06:19.041Z,101402.59
2022-10-19T23:08:47.671Z,101400.72
2022-10-19T23:11:16.321Z,101405.03
2022-10-19T23:13:44.745Z,101400.63
2022-10-19T23:16:13.142Z,101398.97
2022-10-19T23:18:41.675Z,101389.22
2022-10-19T23:21:12.593Z,101396.38
2022-10-19T23:23:41.520Z,101396.63
2022-10-19T23:26:13.740Z,101397.38
2022-10-19T23:28:44.730Z,101397.38
2022-10-19T23:31:17.040Z,101391.00
2022-10-19T23:33:46.087Z,101392.03
2022-10-19T23:36:18.765Z,101394.63
2022-10-19T23:38:49.159Z,101394.69
2022-10-19T23:41:18.800Z,101401.19
2022-10-19T23:43:47.368Z,101397.63
2022-10-19T23:46:15.711Z,101399.13
2022-10-19T23:48:44.207Z,101403.59
2022-10-19T23:51:15.810Z,101400.22
2022-10-19T23:53:47.034Z,101408.25
2022-10-19T23:56:28.839Z,101405.59
2022-10-19T23:58:57.502Z,101415.50
